メインページ
METAR-TAF:

METAR-TAF

空港 :

ロングイェールビーン, ノルウェー

緯度: 78-15N, 経度: 015-28E, 海抜: 2m

現時点の気象観測

当レポートは41分前の22:50(UTC)に作成
東/南東の風 6kt
気温 -11°C
湿度 72%
気圧 1018 hPa
視程10km以上
高度2100ftの雲はほとんどない

METAR: ENSB 232250Z 12006KT 9999 FEW021 M11/M15 Q1018 RMK WIND 1400FT /////KT

時間: 01:31 (23:31 UTC)

予報

予報は23日の 18時(UTC)から 24日の 18時(UTC)まで有効
東/南東の風 8kt
視程10km以上
高度1500ftの雲はほとんどない
高度3000ftの雲は散在している
23日の 18時(UTC)から 24日の 18時(UTC)まで一時的に
東/北東の風 10kt

TAF: ENSB 2318/2418 12008KT 9999 FEW015 SCT030 TEMPO 2318/2418 06010KT

4,000以上の空港の気象観測と天気予報(METAR報とTAF報)

利用可能な観測所は地図上に黄色い丸と赤い丸で示す。

丸の上にカーソルを重ねると観測所名を参照できる。

次にクリックすると気象観測と天気予報を参照できる。

マップの切り替え:黒色「×」印の緑ボタンをクリックして拡大、「-」印の緑ボタンをクリックして縮小、緑色の三角印をクリックして隣りの地図に切り替え


METAR-TAF: